Time;durP1;ratioP1;P1;durP2;ratioP2;P2;SDS_P1;SDS_P2;PMS_P1;PMS_P2;Temp;Humidity;BMP_temperature;BMP_pressure;BME280_temperature;BME280_humidity;BME280_pressure;Samples;Min_cycle;Max_cycle;Signal;HPM_P1;HPM_P2
2023/10/27 00:00:44;;;;;;;;;;;10.10;93.20;;;;;;5011485;28;19916;-49
2023/10/27 00:03:10;;;;;;;;;;;10.10;93.20;;;;;;5012216;28;19921;-48
2023/10/27 00:05:36;;;;;;;;;;;10.10;93.20;;;;;;5012324;28;19917;-49
2023/10/27 00:08:03;;;;;;;;;;;10.10;93.30;;;;;;5011306;28;19984;-48
2023/10/27 00:10:31;;;;;;;;;;;10.10;93.30;;;;;;5023378;28;19909;-52
2023/10/27 00:12:58;;;;;;;;;;;10.20;93.20;;;;;;5011973;28;20300;-49
2023/10/27 00:15:24;;;;;;;;;;;10.20;93.20;;;;;;5012168;28;19910;-48
2023/10/27 00:17:50;;;;;;;;;;;10.20;93.20;;;;;;5012224;28;20234;-48
2023/10/27 00:20:16;;;;;;;;;;;10.10;93.10;;;;;;5012023;28;19906;-47
2023/10/27 00:22:44;;;;;;;;;;;10.20;93.20;;;;;;5023331;28;19909;-49
2023/10/27 00:25:10;;;;;;;;;;;10.10;93.10;;;;;;5031513;28;20325;-50
2023/10/27 00:27:37;;;;;;;;;;;10.10;93.00;;;;;;5031553;28;19913;-47
2023/10/27 00:30:05;;;;;;;;;;;10.10;93.10;;;;;;5013460;28;19957;-50
2023/10/27 00:32:30;;;;;;;;;;;10.10;93.00;;;;;;5010313;28;20353;-47
2023/10/27 00:34:57;;;;;;;;;;;10.00;93.00;;;;;;5011701;28;19909;-47
2023/10/27 00:37:26;;;;;;;;;;;10.00;93.10;;;;;;5011752;28;20005;-48
2023/10/27 00:39:52;;;;;;;;;;;10.00;93.10;;;;;;5013751;28;19905;-47
2023/10/27 00:42:19;;;;;;;;;;;10.00;93.00;;;;;;5029831;28;19916;-47
2023/10/27 00:44:44;;;;;;;;;;;10.00;93.20;;;;;;5011633;28;19991;-49
2023/10/27 00:47:11;;;;;;;;;;;10.00;93.10;;;;;;5011838;28;20336;-47
2023/10/27 00:49:37;;;;;;;;;;;10.00;93.20;;;;;;5011361;28;20234;-46
2023/10/27 00:52:03;;;;;;;;;;;10.00;93.30;;;;;;5010874;28;19996;-46
2023/10/27 00:54:31;;;;;;;;;;;10.00;93.30;;;;;;5011596;28;20008;-47
2023/10/27 00:56:57;;;;;;;;;;;10.00;93.20;;;;;;5011583;28;19909;-48
2023/10/27 00:59:26;;;;;;;;;;;9.90;93.20;;;;;;5027144;28;19916;-47
2023/10/27 01:02:04;;;;;;;;;;;9.90;93.30;;;;;;5031420;28;19992;-47
2023/10/27 01:04:30;;;;;;;;;;;9.90;93.30;;;;;;5030842;28;19913;-48
2023/10/27 01:06:56;;;;;;;;;;;9.90;93.30;;;;;;5029010;28;19919;-47
2023/10/27 01:09:23;;;;;;;;;;;9.90;93.40;;;;;;5011251;28;20563;-46
2023/10/27 01:11:51;;;;;;;;;;;9.90;93.40;;;;;;5029141;28;19917;-47
2023/10/27 01:14:18;;;;;;;;;;;9.90;93.40;;;;;;5031090;28;19905;-46
2023/10/27 01:16:44;;;;;;;;;;;9.90;93.50;;;;;;5029379;28;19916;-46
2023/10/27 01:19:12;;;;;;;;;;;9.90;93.50;;;;;;5011502;28;20385;-48
2023/10/27 01:21:39;;;;;;;;;;;9.90;93.40;;;;;;5012647;28;19905;-46
2023/10/27 01:24:06;;;;;;;;;;;9.90;93.50;;;;;;5011003;28;19917;-47
2023/10/27 01:26:31;;;;;;;;;;;9.90;93.50;;;;;;5030056;28;19945;-47
2023/10/27 01:28:58;;;;;;;;;;;9.90;93.50;;;;;;5030731;28;19943;-47
2023/10/27 01:31:25;;;;;;;;;;;9.90;93.50;;;;;;5016497;28;19934;-47
2023/10/27 01:33:51;;;;;;;;;;;9.90;93.50;;;;;;5029622;28;19936;-50
2023/10/27 01:36:17;;;;;;;;;;;9.80;93.40;;;;;;5030750;28;19909;-47
2023/10/27 01:38:44;;;;;;;;;;;9.80;93.40;;;;;;5016314;28;19909;-47
2023/10/27 01:41:12;;;;;;;;;;;9.80;93.50;;;;;;5010981;28;20051;-49
2023/10/27 01:43:39;;;;;;;;;;;9.80;93.40;;;;;;5029223;28;19924;-47
2023/10/27 01:46:05;;;;;;;;;;;9.80;93.40;;;;;;5030406;28;19909;-47
2023/10/27 01:48:33;;;;;;;;;;;9.90;93.40;;;;;;5029459;28;19920;-48
2023/10/27 01:51:00;;;;;;;;;;;9.80;93.40;;;;;;5028836;28;19992;-47
2023/10/27 01:53:28;;;;;;;;;;;9.80;93.50;;;;;;5026463;28;19913;-46
2023/10/27 01:55:53;;;;;;;;;;;9.80;93.40;;;;;;5020615;28;19909;-46
2023/10/27 01:58:20;;;;;;;;;;;9.80;93.30;;;;;;5029843;28;19913;-47
2023/10/27 02:00:45;;;;;;;;;;;9.80;93.30;;;;;;5014353;28;20215;-48
2023/10/27 02:03:11;;;;;;;;;;;9.90;93.40;;;;;;5010196;28;20330;-48
2023/10/27 02:05:47;;;;;;;;;;;9.80;93.30;;;;;;5009128;28;19909;-53
2023/10/27 02:08:14;;;;;;;;;;;9.80;93.30;;;;;;5009800;28;19995;-50
2023/10/27 02:10:41;;;;;;;;;;;9.80;93.30;;;;;;5016203;28;19916;-48
2023/10/27 02:13:10;;;;;;;;;;;9.80;93.30;;;;;;5029219;28;19924;-46
2023/10/27 02:15:37;;;;;;;;;;;9.80;93.30;;;;;;5024882;28;19917;-46
2023/10/27 02:18:08;;;;;;;;;;;9.80;93.30;;;;;;5009778;28;19912;-52
2023/10/27 02:20:35;;;;;;;;;;;9.80;93.30;;;;;;5009993;28;19910;-46
2023/10/27 02:23:02;;;;;;;;;;;9.80;93.30;;;;;;5009676;28;19917;-50
2023/10/27 02:25:28;;;;;;;;;;;9.90;93.40;;;;;;5016695;28;19913;-48
2023/10/27 02:27:54;;;;;;;;;;;9.90;93.30;;;;;;5019875;28;19920;-46
2023/10/27 02:30:21;;;;;;;;;;;9.80;93.30;;;;;;5029945;28;19909;-51
2023/10/27 02:32:48;;;;;;;;;;;9.90;93.40;;;;;;5029885;28;19917;-47
2023/10/27 02:35:15;;;;;;;;;;;9.80;93.30;;;;;;5030061;28;20253;-46
2023/10/27 02:37:41;;;;;;;;;;;9.80;93.30;;;;;;5018601;28;20377;-46
2023/10/27 02:40:08;;;;;;;;;;;9.90;93.30;;;;;;5012120;28;19916;-48
2023/10/27 02:42:37;;;;;;;;;;;9.80;93.40;;;;;;5030031;28;19999;-47
2023/10/27 02:45:04;;;;;;;;;;;9.90;93.30;;;;;;5011859;28;19913;-46
2023/10/27 02:47:30;;;;;;;;;;;9.90;93.30;;;;;;5009938;28;19937;-46
2023/10/27 02:49:56;;;;;;;;;;;9.80;93.20;;;;;;5009486;28;19905;-47
2023/10/27 02:52:22;;;;;;;;;;;9.80;93.20;;;;;;5025927;28;19905;-47
2023/10/27 02:54:49;;;;;;;;;;;9.80;93.10;;;;;;5009786;28;20211;-47
2023/10/27 02:57:15;;;;;;;;;;;9.80;93.10;;;;;;5027649;28;19920;-47
2023/10/27 02:59:41;;;;;;;;;;;9.80;93.20;;;;;;5025736;28;19913;-50
2023/10/27 03:02:08;;;;;;;;;;;9.80;93.20;;;;;;5021412;28;19909;-49
2023/10/27 03:04:37;;;;;;;;;;;9.80;93.30;;;;;;5029265;28;19920;-52
2023/10/27 03:07:05;;;;;;;;;;;9.80;93.20;;;;;;5022217;28;19913;-47
2023/10/27 03:09:32;;;;;;;;;;;9.80;93.30;;;;;;5009866;28;20385;-47
2023/10/27 03:11:57;;;;;;;;;;;9.80;93.30;;;;;;5009695;28;19922;-52
2023/10/27 03:14:23;;;;;;;;;;;9.90;93.40;;;;;;5013018;28;19913;-47
2023/10/27 03:16:50;;;;;;;;;;;9.90;93.30;;;;;;5009728;28;19912;-47
2023/10/27 03:19:18;;;;;;;;;;;9.90;93.30;;;;;;5009695;28;19913;-51
2023/10/27 03:21:47;;;;;;;;;;;9.90;93.30;;;;;;5009875;28;20008;-46
2023/10/27 03:24:14;;;;;;;;;;;9.80;93.20;;;;;;5009675;28;19966;-47
2023/10/27 03:26:40;;;;;;;;;;;9.80;93.20;;;;;;5022445;28;19916;-53
2023/10/27 03:29:09;;;;;;;;;;;9.80;93.30;;;;;;5029382;28;19905;-52
2023/10/27 03:31:36;;;;;;;;;;;9.80;93.20;;;;;;5031090;28;19916;-47
2023/10/27 03:34:01;;;;;;;;;;;9.90;93.20;;;;;;5023628;28;19916;-47
2023/10/27 03:36:28;;;;;;;;;;;9.80;93.20;;;;;;5013216;28;19905;-52
2023/10/27 03:38:58;;;;;;;;;;;9.90;93.20;;;;;;5032406;28;20292;-51
2023/10/27 03:41:25;;;;;;;;;;;9.90;93.10;;;;;;5032340;28;19962;-48
2023/10/27 03:43:52;;;;;;;;;;;9.80;93.00;;;;;;5016146;28;20280;-49
2023/10/27 03:46:17;;;;;;;;;;;9.90;93.10;;;;;;5011505;28;19920;-48
2023/10/27 03:48:44;;;;;;;;;;;9.80;93.00;;;;;;5012487;28;20855;-47
2023/10/27 03:51:11;;;;;;;;;;;9.90;93.00;;;;;;5012410;28;20008;-47
2023/10/27 03:53:37;;;;;;;;;;;9.80;92.90;;;;;;5012192;28;20020;-48
2023/10/27 03:56:04;;;;;;;;;;;9.80;92.90;;;;;;5019804;28;20378;-48
2023/10/27 03:58:30;;;;;;;;;;;9.80;93.00;;;;;;5032239;28;19917;-47
2023/10/27 04:00:57;;;;;;;;;;;9.80;92.90;;;;;;5023513;28;19910;-48
2023/10/27 04:03:24;;;;;;;;;;;9.90;93.00;;;;;;5024854;28;19913;-51
2023/10/27 04:05:55;;;;;;;;;;;9.80;92.90;;;;;;5014360;28;19909;-48
2023/10/27 04:08:31;;;;;;;;;;;9.80;92.90;;;;;;5032071;28;20000;-47
2023/10/27 04:10:58;;;;;;;;;;;9.80;92.90;;;;;;5031020;28;19942;-53
2023/10/27 04:13:23;;;;;;;;;;;9.80;92.80;;;;;;5026668;28;19919;-48
2023/10/27 04:15:51;;;;;;;;;;;9.80;92.90;;;;;;5028900;28;19917;-50
2023/10/27 04:18:17;;;;;;;;;;;9.80;92.90;;;;;;5029153;28;20435;-50
2023/10/27 04:20:43;;;;;;;;;;;9.80;92.80;;;;;;5029320;28;19996;-49
2023/10/27 04:23:10;;;;;;;;;;;9.80;92.80;;;;;;5029197;28;19957;-52
2023/10/27 04:25:36;;;;;;;;;;;9.80;92.80;;;;;;5030012;28;19916;-50
2023/10/27 04:28:06;;;;;;;;;;;9.80;92.80;;;;;;5031237;28;19913;-51
2023/10/27 04:30:33;;;;;;;;;;;9.80;92.80;;;;;;5029487;28;19909;-52
2023/10/27 04:32:59;;;;;;;;;;;9.80;92.90;;;;;;5028453;28;19905;-47
2023/10/27 04:35:30;;;;;;;;;;;9.80;92.80;;;;;;5030581;28;19916;-55
2023/10/27 04:37:58;;;;;;;;;;;9.80;92.90;;;;;;5028342;28;20085;-50
2023/10/27 04:40:28;;;;;;;;;;;9.80;92.90;;;;;;5031750;28;19909;-52
2023/10/27 04:42:58;;;;;;;;;;;9.80;92.90;;;;;;5026517;28;20363;-54
2023/10/27 04:45:26;;;;;;;;;;;9.80;92.90;;;;;;5011944;28;20382;-48
2023/10/27 04:47:52;;;;;;;;;;;9.80;92.90;;;;;;5011361;28;19965;-55
2023/10/27 04:50:18;;;;;;;;;;;9.80;92.90;;;;;;5017231;28;20004;-52
2023/10/27 04:52:48;;;;;;;;;;;9.80;92.80;;;;;;5028898;28;19909;-48
2023/10/27 04:55:15;;;;;;;;;;;9.80;92.90;;;;;;5028723;28;20524;-47
2023/10/27 04:57:41;;;;;;;;;;;9.80;93.00;;;;;;5029534;28;19952;-54
2023/10/27 05:00:09;;;;;;;;;;;9.90;93.00;;;;;;5025174;28;20298;-48
2023/10/27 05:02:35;;;;;;;;;;;9.90;93.00;;;;;;5030509;28;19909;-55
2023/10/27 05:05:02;;;;;;;;;;;9.90;92.90;;;;;;5029393;28;19935;-50
2023/10/27 05:07:28;;;;;;;;;;;9.90;93.00;;;;;;5017724;28;19913;-54
2023/10/27 05:09:53;;;;;;;;;;;9.90;93.00;;;;;;5027147;28;20435;-54
2023/10/27 05:12:20;;;;;;;;;;;9.90;93.00;;;;;;5029526;28;20376;-53
2023/10/27 05:14:46;;;;;;;;;;;9.90;93.00;;;;;;5028160;28;20450;-51
2023/10/27 05:17:13;;;;;;;;;;;9.80;92.90;;;;;;5029675;28;19923;-52
2023/10/27 05:19:39;;;;;;;;;;;9.80;93.00;;;;;;5019551;28;19964;-53
2023/10/27 05:22:05;;;;;;;;;;;9.80;92.90;;;;;;5027882;28;19960;-51
2023/10/27 05:24:32;;;;;;;;;;;9.80;93.00;;;;;;5028753;28;19921;-55
2023/10/27 05:26:57;;;;;;;;;;;9.80;93.00;;;;;;5028061;28;20370;-54
2023/10/27 05:29:25;;;;;;;;;;;9.80;93.00;;;;;;5026507;28;19909;-50
2023/10/27 05:31:53;;;;;;;;;;;9.70;93.00;;;;;;5027106;28;20288;-54
2023/10/27 05:34:19;;;;;;;;;;;9.70;93.10;;;;;;5033973;28;19913;-52
2023/10/27 05:36:46;;;;;;;;;;;9.70;93.10;;;;;;5016587;28;19913;-52
2023/10/27 05:39:19;;;;;;;;;;;9.70;93.10;;;;;;5028433;28;19967;-51
2023/10/27 05:41:49;;;;;;;;;;;9.70;93.10;;;;;;5025852;28;19975;-49
2023/10/27 05:44:20;;;;;;;;;;;9.70;93.00;;;;;;5008850;28;19924;-50
2023/10/27 05:46:47;;;;;;;;;;;9.70;93.00;;;;;;5028891;28;19958;-52
2023/10/27 05:49:12;;;;;;;;;;;9.60;93.00;;;;;;5024226;28;19952;-55
2023/10/27 05:51:41;;;;;;;;;;;9.60;93.00;;;;;;5030250;28;19955;-50
2023/10/27 05:54:10;;;;;;;;;;;9.60;93.10;;;;;;5022011;28;20322;-55
2023/10/27 05:56:37;;;;;;;;;;;9.60;93.10;;;;;;5026456;28;19917;-54
2023/10/27 05:59:05;;;;;;;;;;;9.60;93.10;;;;;;5026013;28;19954;-49
2023/10/27 06:01:33;;;;;;;;;;;9.60;93.10;;;;;;5028137;28;19909;-55
2023/10/27 06:03:59;;;;;;;;;;;9.60;93.10;;;;;;5026653;28;19913;-53
2023/10/27 06:06:27;;;;;;;;;;;9.60;93.20;;;;;;5028678;28;19956;-55
2023/10/27 06:09:01;;;;;;;;;;;9.60;93.10;;;;;;5027303;28;20373;-50
2023/10/27 06:11:26;;;;;;;;;;;9.60;93.10;;;;;;5029115;28;19964;-54
2023/10/27 06:13:53;;;;;;;;;;;9.60;93.10;;;;;;5027695;28;20399;-53
2023/10/27 06:16:20;;;;;;;;;;;9.60;93.10;;;;;;5023751;28;19912;-55
2023/10/27 06:18:46;;;;;;;;;;;9.60;93.10;;;;;;5026588;28;19920;-51
2023/10/27 06:21:13;;;;;;;;;;;9.60;93.00;;;;;;5025636;28;19986;-55
2023/10/27 06:23:39;;;;;;;;;;;9.70;92.90;;;;;;5027673;28;19917;-48
2023/10/27 06:26:06;;;;;;;;;;;9.70;93.00;;;;;;5026431;28;20253;-54
2023/10/27 06:28:32;;;;;;;;;;;9.70;93.00;;;;;;5022775;28;19909;-55
2023/10/27 06:31:01;;;;;;;;;;;9.70;93.00;;;;;;5026035;28;19948;-53
2023/10/27 06:33:32;;;;;;;;;;;9.60;93.00;;;;;;5025669;28;19909;-52
2023/10/27 06:36:01;;;;;;;;;;;9.60;93.00;;;;;;5024308;28;19970;-53
2023/10/27 06:38:29;;;;;;;;;;;9.60;93.10;;;;;;5026069;28;19966;-54
2023/10/27 06:41:01;;;;;;;;;;;9.60;93.10;;;;;;5025707;28;19940;-53
2023/10/27 06:43:27;;;;;;;;;;;9.60;93.00;;;;;;5013125;28;19913;-54
2023/10/27 06:45:54;;;;;;;;;;;9.60;93.00;;;;;;5023561;28;20618;-55
2023/10/27 06:48:21;;;;;;;;;;;9.60;92.90;;;;;;5024712;28;19913;-55
2023/10/27 06:50:48;;;;;;;;;;;9.60;92.80;;;;;;5032423;28;20690;-53
2023/10/27 06:53:17;;;;;;;;;;;9.60;92.60;;;;;;5034494;27;19915;-53
2023/10/27 06:55:43;;;;;;;;;;;9.60;92.70;;;;;;5018864;28;19920;-54
2023/10/27 06:58:11;;;;;;;;;;;9.60;92.60;;;;;;5047066;28;19909;-53
2023/10/27 07:00:38;;;;;;;;;;;9.60;92.50;;;;;;5045178;28;19969;-55
2023/10/27 07:03:05;;;;;;;;;;;9.60;92.60;;;;;;5029060;28;20008;-55
2023/10/27 07:05:30;;;;;;;;;;;9.60;92.60;;;;;;5024701;28;19913;-54
2023/10/27 07:07:56;;;;;;;;;;;9.60;92.50;;;;;;5031817;28;20351;-55
2023/10/27 07:10:22;;;;;;;;;;;9.60;92.50;;;;;;5011211;28;19913;-55
2023/10/27 07:12:52;;;;;;;;;;;9.60;92.50;;;;;;5029019;28;20317;-55
2023/10/27 07:15:19;;;;;;;;;;;9.70;92.60;;;;;;5031263;28;20003;-52
2023/10/27 07:17:45;;;;;;;;;;;9.60;92.40;;;;;;5038463;27;19919;-55
2023/10/27 07:20:12;;;;;;;;;;;9.70;92.40;;;;;;5028314;28;19916;-54
2023/10/27 07:22:39;;;;;;;;;;;9.60;92.40;;;;;;5024394;28;19909;-55
2023/10/27 07:25:05;;;;;;;;;;;9.60;92.50;;;;;;5034993;27;19982;-52
2023/10/27 07:27:31;;;;;;;;;;;9.60;92.50;;;;;;5048227;27;19909;-55
2023/10/27 07:29:59;;;;;;;;;;;9.70;92.60;;;;;;5027723;28;19920;-55
2023/10/27 07:32:27;;;;;;;;;;;9.60;92.60;;;;;;5024488;27;19958;-54
2023/10/27 07:34:53;;;;;;;;;;;9.70;92.80;;;;;;5029845;27;20336;-53
2023/10/27 07:37:21;;;;;;;;;;;9.70;92.70;;;;;;5112619;27;19904;-54
2023/10/27 07:39:48;;;;;;;;;;;9.70;92.60;;;;;;5109180;27;20349;-55
2023/10/27 07:42:14;;;;;;;;;;;9.70;92.60;;;;;;5022291;28;19957;-55
2023/10/27 07:44:41;;;;;;;;;;;9.70;92.60;;;;;;5031946;27;19978;-56
2023/10/27 07:47:06;;;;;;;;;;;9.70;92.70;;;;;;5030944;28;20260;-49
2023/10/27 07:49:32;;;;;;;;;;;9.80;92.80;;;;;;5020626;28;19910;-51
2023/10/27 07:51:59;;;;;;;;;;;9.70;92.50;;;;;;5011873;28;20405;-48
2023/10/27 07:54:26;;;;;;;;;;;9.70;92.40;;;;;;5012128;28;20008;-51
2023/10/27 07:56:53;;;;;;;;;;;9.70;92.30;;;;;;5027236;28;19924;-48
2023/10/27 07:59:19;;;;;;;;;;;9.70;92.40;;;;;;5030816;28;19910;-48
2023/10/27 08:01:46;;;;;;;;;;;9.80;92.30;;;;;;5038829;27;20450;-52
2023/10/27 08:04:15;;;;;;;;;;;9.80;92.30;;;;;;5039749;27;20011;-50
2023/10/27 08:06:42;;;;;;;;;;;9.70;92.10;;;;;;5031344;28;19969;-50
2023/10/27 08:09:09;;;;;;;;;;;9.70;92.20;;;;;;5036451;27;20338;-49
2023/10/27 08:11:35;;;;;;;;;;;9.80;92.20;;;;;;5028987;28;19921;-50
2023/10/27 08:14:00;;;;;;;;;;;9.80;92.00;;;;;;5045491;27;19915;-49
2023/10/27 08:16:26;;;;;;;;;;;9.80;91.80;;;;;;5027830;28;20459;-49
2023/10/27 08:18:52;;;;;;;;;;;9.80;91.90;;;;;;5027219;28;20003;-48
2023/10/27 08:21:19;;;;;;;;;;;9.80;91.90;;;;;;5029564;28;19920;-48
2023/10/27 08:23:45;;;;;;;;;;;9.90;92.00;;;;;;5028514;28;19986;-49
2023/10/27 08:26:11;;;;;;;;;;;9.80;91.90;;;;;;5022034;28;19909;-49
2023/10/27 08:28:37;;;;;;;;;;;9.90;92.00;;;;;;5020376;28;19917;-49
2023/10/27 08:31:04;;;;;;;;;;;9.90;92.10;;;;;;5044228;27;20016;-49
2023/10/27 08:33:30;;;;;;;;;;;9.90;92.00;;;;;;5029857;28;19913;-49
2023/10/27 08:36:05;;;;;;;;;;;9.90;92.10;;;;;;5027171;28;20288;-49
2023/10/27 08:38:32;;;;;;;;;;;9.90;92.00;;;;;;5027815;28;19928;-50
2023/10/27 08:41:00;;;;;;;;;;;9.90;92.10;;;;;;5030561;28;19913;-49
2023/10/27 08:43:29;;;;;;;;;;;10.00;92.10;;;;;;5027194;28;19977;-49
2023/10/27 08:45:57;;;;;;;;;;;9.90;92.00;;;;;;5048348;27;19940;-54
2023/10/27 08:48:24;;;;;;;;;;;10.00;92.00;;;;;;5028155;28;19917;-56
2023/10/27 08:50:53;;;;;;;;;;;10.00;91.90;;;;;;5029715;28;19909;-51
2023/10/27 08:53:18;;;;;;;;;;;10.00;91.80;;;;;;5025532;28;19940;-51
2023/10/27 08:55:47;;;;;;;;;;;9.90;91.70;;;;;;5029835;28;19956;-52
2023/10/27 08:58:14;;;;;;;;;;;10.00;92.00;;;;;;5027650;28;19921;-49
2023/10/27 09:00:42;;;;;;;;;;;10.10;92.00;;;;;;5026711;28;19920;-48
2023/10/27 09:03:16;;;;;;;;;;;10.10;92.00;;;;;;5029442;28;19954;-52
2023/10/27 09:05:42;;;;;;;;;;;10.00;91.80;;;;;;5026780;28;19924;-48
2023/10/27 09:08:10;;;;;;;;;;;9.90;91.60;;;;;;5029148;28;20281;-50
2023/10/27 09:10:36;;;;;;;;;;;10.00;91.80;;;;;;5028361;28;20268;-50
2023/10/27 09:13:09;;;;;;;;;;;9.90;91.80;;;;;;5029155;28;20008;-50
2023/10/27 09:15:45;;;;;;;;;;;10.00;91.90;;;;;;5029331;28;19967;-50
2023/10/27 09:18:13;;;;;;;;;;;9.90;91.80;;;;;;5029232;28;19917;-49
2023/10/27 09:20:49;;;;;;;;;;;10.00;91.80;;;;;;5028356;28;19920;-50
2023/10/27 09:23:17;;;;;;;;;;;10.00;91.80;;;;;;5027896;28;19974;-49
2023/10/27 09:25:42;;;;;;;;;;;10.00;91.70;;;;;;5028593;28;19913;-50
2023/10/27 09:28:11;;;;;;;;;;;10.00;91.50;;;;;;5029627;28;20147;-52
2023/10/27 09:30:55;;;;;;;;;;;10.10;91.60;;;;;;5021909;28;19970;-49
2023/10/27 09:33:28;;;;;;;;;;;10.10;91.30;;;;;;5022757;28;19933;-54
2023/10/27 09:35:55;;;;;;;;;;;10.10;91.10;;;;;;5013055;28;19909;-52
2023/10/27 09:38:22;;;;;;;;;;;10.20;91.20;;;;;;5028633;28;19916;-50
2023/10/27 09:40:48;;;;;;;;;;;10.10;91.20;;;;;;5028082;28;19917;-51
2023/10/27 09:43:21;;;;;;;;;;;10.10;91.10;;;;;;5017430;28;20735;-53
2023/10/27 09:46:06;;;;;;;;;;;10.10;91.20;;;;;;5028684;28;19921;-54
2023/10/27 09:48:35;;;;;;;;;;;10.10;91.20;;;;;;5028440;28;19917;-49
2023/10/27 09:51:21;;;;;;;;;;;10.10;91.10;;;;;;5029418;28;19913;-48
2023/10/27 09:53:49;;;;;;;;;;;10.00;91.10;;;;;;5019757;28;19909;-49
2023/10/27 09:56:17;;;;;;;;;;;10.00;91.20;;;;;;5020886;28;19913;-53
2023/10/27 09:58:53;;;;;;;;;;;10.00;91.20;;;;;;5029461;28;19916;-50
2023/10/27 10:01:20;;;;;;;;;;;9.90;91.30;;;;;;5029219;28;19909;-55
2023/10/27 10:03:50;;;;;;;;;;;9.90;91.50;;;;;;5017897;28;19917;-48
2023/10/27 10:06:25;;;;;;;;;;;9.90;91.70;;;;;;5028325;28;19909;-54
2023/10/27 10:09:09;;;;;;;;;;;9.90;91.60;;;;;;5028216;28;20011;-50
2023/10/27 10:11:50;;;;;;;;;;;9.90;91.60;;;;;;5029627;28;19999;-48
2023/10/27 10:14:36;;;;;;;;;;;10.00;91.70;;;;;;5015874;28;19909;-48
2023/10/27 10:17:08;;;;;;;;;;;9.90;91.60;;;;;;5029007;28;20223;-50
2023/10/27 10:19:48;;;;;;;;;;;10.00;91.70;;;;;;5026906;28;20219;-50
2023/10/27 10:22:42;;;;;;;;;;;10.00;91.70;;;;;;5025369;28;19921;-48
2023/10/27 10:25:25;;;;;;;;;;;10.00;91.70;;;;;;5020332;28;19925;-48
2023/10/27 10:28:06;;;;;;;;;;;9.90;91.50;;;;;;5076425;28;19986;-52
2023/10/27 10:30:33;;;;;;;;;;;10.00;91.80;;;;;;5027931;28;19904;-49
2023/10/27 10:33:19;;;;;;;;;;;10.00;91.90;;;;;;5019429;28;19913;-48
2023/10/27 10:35:49;;;;;;;;;;;10.10;92.10;;;;;;5024344;28;20523;-48
2023/10/27 10:38:23;;;;;;;;;;;10.10;92.20;;;;;;5028180;28;19909;-48
2023/10/27 10:40:51;;;;;;;;;;;10.20;92.10;;;;;;5027623;28;19909;-51
2023/10/27 10:46:28;;;;;;;;;;;10.30;92.10;;;;;;5039507;28;20357;-49
2023/10/27 10:48:53;;;;;;;;;;;10.30;92.00;;;;;;5017883;28;19924;-55
2023/10/27 10:51:36;;;;;;;;;;;10.30;92.00;;;;;;5031295;28;19912;-50
2023/10/27 10:54:10;;;;;;;;;;;10.40;92.30;;;;;;5030558;28;20003;-48
2023/10/27 10:56:37;;;;;;;;;;;10.30;91.90;;;;;;5030690;28;20280;-48
2023/10/27 10:59:04;;;;;;;;;;;10.30;91.90;;;;;;5031907;28;19919;-50
2023/10/27 11:01:31;;;;;;;;;;;10.20;92.10;;;;;;5023144;28;19916;-49
2023/10/27 11:03:57;;;;;;;;;;;10.20;92.30;;;;;;5032078;28;20388;-48
2023/10/27 11:06:25;;;;;;;;;;;10.20;92.50;;;;;;5029366;28;19909;-49
2023/10/27 11:08:53;;;;;;;;;;;10.20;92.60;;;;;;5022300;28;19920;-51
2023/10/27 11:11:20;;;;;;;;;;;10.20;92.60;;;;;;5022534;28;20016;-52
2023/10/27 11:14:04;;;;;;;;;;;10.20;92.80;;;;;;5031692;28;19909;-50
2023/10/27 11:16:31;;;;;;;;;;;10.20;92.80;;;;;;5031190;28;19909;-54
2023/10/27 11:19:02;;;;;;;;;;;10.30;92.70;;;;;;5020359;28;19913;-49
2023/10/27 11:21:29;;;;;;;;;;;10.30;92.70;;;;;;5030912;28;19965;-50
2023/10/27 11:23:58;;;;;;;;;;;10.30;92.60;;;;;;5021761;28;20340;-54
2023/10/27 11:26:26;;;;;;;;;;;10.20;92.30;;;;;;5027113;28;19949;-49
2023/10/27 11:28:54;;;;;;;;;;;10.30;92.50;;;;;;5031110;28;19916;-48
2023/10/27 11:31:42;;;;;;;;;;;10.30;92.30;;;;;;5031536;28;19927;-49
2023/10/27 11:34:28;;;;;;;;;;;10.30;92.20;;;;;;5022145;28;19909;-51
2023/10/27 11:37:01;;;;;;;;;;;10.30;91.90;;;;;;5017632;28;20391;-51
2023/10/27 11:39:27;;;;;;;;;;;10.30;91.80;;;;;;5001692;28;20008;-49
2023/10/27 11:42:11;;;;;;;;;;;10.40;91.60;;;;;;5031376;28;20477;-50
2023/10/27 11:44:42;;;;;;;;;;;10.40;91.70;;;;;;5031299;28;20381;-48
2023/10/27 11:47:10;;;;;;;;;;;10.60;91.70;;;;;;5026732;28;19913;-48
2023/10/27 11:49:37;;;;;;;;;;;10.70;91.60;;;;;;5031316;28;19912;-49
2023/10/27 11:52:05;;;;;;;;;;;10.70;91.10;;;;;;5029722;28;19909;-49
2023/10/27 11:54:33;;;;;;;;;;;10.70;90.80;;;;;;5028539;28;20184;-50
2023/10/27 11:57:02;;;;;;;;;;;10.80;90.80;;;;;;5027256;28;19909;-48
2023/10/27 11:59:29;;;;;;;;;;;10.90;90.80;;;;;;5010978;28;19999;-54
2023/10/27 12:01:55;;;;;;;;;;;10.90;90.30;;;;;;5026376;28;20405;-48
2023/10/27 12:04:21;;;;;;;;;;;10.90;90.00;;;;;;5026144;28;19917;-49
2023/10/27 12:06:46;;;;;;;;;;;10.90;89.90;;;;;;5028868;28;19913;-51
2023/10/27 12:09:13;;;;;;;;;;;10.90;89.80;;;;;;5029741;28;20655;-54
2023/10/27 12:11:41;;;;;;;;;;;11.00;89.80;;;;;;5022707;28;19966;-48
2023/10/27 12:14:10;;;;;;;;;;;11.00;89.60;;;;;;5029534;28;19965;-54
2023/10/27 12:16:36;;;;;;;;;;;11.00;89.30;;;;;;5023736;28;20319;-54
2023/10/27 12:19:02;;;;;;;;;;;11.00;89.20;;;;;;5049911;27;19950;-53
2023/10/27 12:21:28;;;;;;;;;;;11.00;89.00;;;;;;5043316;27;19951;-48
2023/10/27 12:23:54;;;;;;;;;;;11.10;89.10;;;;;;5030592;28;20382;-50
2023/10/27 12:26:20;;;;;;;;;;;11.10;89.00;;;;;;5027704;28;19917;-52
2023/10/27 12:28:46;;;;;;;;;;;11.00;88.80;;;;;;5029969;28;19961;-53
2023/10/27 12:31:13;;;;;;;;;;;11.00;88.70;;;;;;5025755;28;19924;-49
2023/10/27 12:33:41;;;;;;;;;;;11.00;89.00;;;;;;5058880;28;19917;-54
2023/10/27 12:36:10;;;;;;;;;;;11.10;89.00;;;;;;5029304;28;19959;-50
2023/10/27 12:38:47;;;;;;;;;;;11.00;89.10;;;;;;5021680;28;19924;-51
2023/10/27 12:41:14;;;;;;;;;;;11.00;89.10;;;;;;5012245;28;20078;-53
2023/10/27 12:43:43;;;;;;;;;;;11.00;89.30;;;;;;5030401;28;19989;-48
2023/10/27 12:46:10;;;;;;;;;;;11.00;89.40;;;;;;5021108;28;19909;-55
2023/10/27 12:48:37;;;;;;;;;;;11.00;89.30;;;;;;5028818;28;19968;-54
2023/10/27 12:51:04;;;;;;;;;;;11.00;88.90;;;;;;5028269;28;19941;-50
2023/10/27 12:53:31;;;;;;;;;;;11.10;89.10;;;;;;5028067;28;20381;-51
2023/10/27 12:55:56;;;;;;;;;;;11.10;88.70;;;;;;5027987;28;19924;-48
2023/10/27 12:58:24;;;;;;;;;;;11.00;88.90;;;;;;5025984;28;19916;-48
2023/10/27 13:00:52;;;;;;;;;;;11.00;88.50;;;;;;5027082;28;20609;-53
2023/10/27 13:03:19;;;;;;;;;;;11.00;88.90;;;;;;5009588;28;20396;-53
2023/10/27 13:05:46;;;;;;;;;;;11.00;88.90;;;;;;5029028;27;19924;-53
2023/10/27 13:08:14;;;;;;;;;;;11.00;89.10;;;;;;5018533;28;19945;-52
2023/10/27 13:10:40;;;;;;;;;;;11.10;89.00;;;;;;5013165;28;19961;-51
2023/10/27 13:13:06;;;;;;;;;;;11.00;89.00;;;;;;5019431;28;20366;-53
2023/10/27 13:15:37;;;;;;;;;;;11.00;88.90;;;;;;5020302;28;19924;-55
2023/10/27 13:18:04;;;;;;;;;;;11.00;88.70;;;;;;5023071;28;20258;-53
2023/10/27 13:20:31;;;;;;;;;;;11.00;88.90;;;;;;5013000;28;20397;-51
2023/10/27 13:22:58;;;;;;;;;;;11.00;89.00;;;;;;5011402;28;19932;-51
2023/10/27 13:25:25;;;;;;;;;;;11.00;88.90;;;;;;5019658;28;19923;-54
2023/10/27 13:27:52;;;;;;;;;;;10.90;88.90;;;;;;5013740;28;20008;-53
2023/10/27 13:30:19;;;;;;;;;;;11.00;89.00;;;;;;5022628;28;19910;-54
2023/10/27 13:32:46;;;;;;;;;;;10.90;88.90;;;;;;5026210;27;19920;-55
2023/10/27 13:35:12;;;;;;;;;;;10.90;89.20;;;;;;5019422;28;19920;-52
2023/10/27 13:37:39;;;;;;;;;;;10.90;88.90;;;;;;5013292;28;19913;-54
2023/10/27 13:40:09;;;;;;;;;;;11.00;89.20;;;;;;5014228;28;20357;-51
2023/10/27 13:42:37;;;;;;;;;;;11.00;89.10;;;;;;5017572;28;19956;-51
2023/10/27 13:45:04;;;;;;;;;;;11.10;89.10;;;;;;5012966;28;19917;-53
2023/10/27 13:47:31;;;;;;;;;;;11.10;88.80;;;;;;5037956;27;19909;-54
2023/10/27 13:50:00;;;;;;;;;;;11.10;88.70;;;;;;5023490;27;19913;-54
2023/10/27 13:52:26;;;;;;;;;;;11.10;88.80;;;;;;5023430;28;20345;-54
2023/10/27 13:54:58;;;;;;;;;;;11.10;88.70;;;;;;5010374;28;19909;-54
2023/10/27 13:57:28;;;;;;;;;;;11.00;88.70;;;;;;5015878;28;19940;-52
2023/10/27 13:59:56;;;;;;;;;;;11.00;88.50;;;;;;5020438;28;19928;-53
2023/10/27 14:02:23;;;;;;;;;;;11.10;88.70;;;;;;5033756;28;19920;-53
2023/10/27 14:04:51;;;;;;;;;;;11.00;88.70;;;;;;5017869;28;20341;-54
2023/10/27 14:07:19;;;;;;;;;;;11.00;88.80;;;;;;5015688;28;20372;-53
2023/10/27 14:09:45;;;;;;;;;;;11.00;88.70;;;;;;5020787;28;19913;-54
2023/10/27 14:12:11;;;;;;;;;;;11.00;88.80;;;;;;5019635;28;20384;-55
2023/10/27 14:14:37;;;;;;;;;;;10.90;88.70;;;;;;5016995;28;19960;-54
2023/10/27 14:17:03;;;;;;;;;;;10.90;89.10;;;;;;5015819;28;19917;-55
2023/10/27 14:19:29;;;;;;;;;;;10.90;89.10;;;;;;5014895;28;19909;-53
2023/10/27 14:21:56;;;;;;;;;;;10.90;89.20;;;;;;5013823;28;19918;-53
2023/10/27 14:24:24;;;;;;;;;;;10.90;89.40;;;;;;5017000;28;19964;-51
2023/10/27 14:26:52;;;;;;;;;;;10.90;89.50;;;;;;5012910;28;19923;-54
2023/10/27 14:29:17;;;;;;;;;;;10.80;89.30;;;;;;5020605;28;19914;-55
2023/10/27 14:31:44;;;;;;;;;;;10.80;89.30;;;;;;5044245;28;20261;-54